Miami, Florida
Traffic Map
Current Weather Conditions
Miami, Florida
Overcast
Overcast
78°
Feels Like: 80°
Wind Chill: 78° Ceiling: 2800
Heat Index: 80° Visibility: 10mi
Dew Point: 69° Wind: 12mph
Humidity: 74% Direction: 40° (NE)
Pressure: 29.85in Gusts: 0mph
Raw Report DataKMIA 240653Z 04010KT 10SM BKN028 OVC034 26/21 A2985 RMK AO2 SLP107 T02560206
Traffic Incident Summary
Active as of:
Severity:
Category:
InformationThere was an issue retrieving the traffic information for this location. Please try a different location or try again shortly.
Advertisements
Track Severe Weather on mobile